Time;durP1;ratioP1;P1;durP2;ratioP2;P2;SDS_P1;SDS_P2;PMS_P1;PMS_P2;Temp;Humidity;BMP_temperature;BMP_pressure;BME280_temperature;BME280_humidity;BME280_pressure;Samples;Min_cycle;Max_cycle;Signal;HPM_P1;HPM_P2
2022/01/20 00:00:19;;;;;;;0.65;0.50;;;22.50;44.20;;;;;;5101905;28;20484;-49
2022/01/20 00:02:47;;;;;;;1.02;0.60;;;22.50;44.10;;;;;;5103204;28;20020;-48
2022/01/20 00:05:31;;;;;;;0.68;0.52;;;22.50;44.10;;;;;;5103659;28;20039;-48
2022/01/20 00:26:56;;;;;;;0.70;0.60;;;22.20;44.20;;;;;;5102663;28;20028;-50
2022/01/20 00:29:29;;;;;;;0.75;0.70;;;22.20;44.20;;;;;;5107477;28;20041;-51
2022/01/20 00:32:34;;;;;;;1.40;0.70;;;22.20;44.20;;;;;;5102779;28;20055;-52
2022/01/20 00:37:24;;;;;;;0.73;0.73;;;22.10;44.20;;;;;;5103102;28;20036;-53
2022/01/20 00:39:50;;;;;;;0.95;0.77;;;22.10;44.20;;;;;;5102730;28;20046;-51
2022/01/20 00:42:17;;;;;;;0.77;0.77;;;22.00;44.20;;;;;;5102884;28;20024;-51
2022/01/20 00:44:43;;;;;;;0.60;0.60;;;22.00;44.20;;;;;;5102914;28;20031;-51
2022/01/20 00:47:10;;;;;;;0.70;0.70;;;22.00;44.30;;;;;;5103165;28;20028;-47
2022/01/20 00:49:36;;;;;;;0.90;0.80;;;21.90;44.30;;;;;;5102419;28;20032;-51
2022/01/20 00:52:03;;;;;;;0.73;0.68;;;21.90;44.30;;;;;;5102717;28;20104;-49
2022/01/20 00:54:29;;;;;;;;;;;21.90;44.40;;;;;;5103227;28;20034;-48
2022/01/20 00:56:55;;;;;;;1.13;0.80;;;21.90;44.30;;;;;;5102894;28;19939;-47
2022/01/20 00:59:21;;;;;;;1.02;0.70;;;21.80;44.50;;;;;;5102681;28;20050;-49
2022/01/20 01:01:48;;;;;;;0.77;0.57;;;21.80;44.40;;;;;;5101678;28;20032;-52
2022/01/20 01:04:14;;;;;;;0.75;0.75;;;21.80;44.50;;;;;;5102943;28;20012;-49
2022/01/20 01:09:29;;;;;;;0.63;0.60;;;21.70;44.40;;;;;;5063933;28;20127;-48
2022/01/20 01:12:00;;;;;;;0.57;0.52;;;21.70;44.40;;;;;;5084241;28;20461;-50
2022/01/20 01:14:29;;;;;;;1.17;0.88;;;21.70;44.40;;;;;;5102417;28;20020;-50
2022/01/20 01:24:43;;;;;;;0.70;0.70;;;21.50;44.60;;;;;;5102622;28;20047;-50
2022/01/20 01:27:10;;;;;;;0.60;0.60;;;21.50;44.60;;;;;;5116068;28;20024;-47
2022/01/20 01:32:26;;;;;;;1.13;0.80;;;21.50;44.70;;;;;;5082217;28;20098;-50
2022/01/20 01:34:53;;;;;;;0.77;0.70;;;21.40;44.70;;;;;;5082334;28;20037;-48
2022/01/20 01:40:03;;;;;;;0.90;0.68;;;21.40;44.80;;;;;;5085600;28;20025;-48
2022/01/20 01:42:36;;;;;;;1.05;0.90;;;21.30;44.70;;;;;;5119600;28;20031;-48
2022/01/20 01:45:08;;;;;;;1.42;0.73;;;21.30;44.80;;;;;;5126947;28;20032;-48
2022/01/20 01:47:34;;;;;;;1.10;0.82;;;21.30;44.80;;;;;;5126309;28;20030;-48
2022/01/20 01:50:00;;;;;;;1.98;1.08;;;21.30;44.80;;;;;;5112344;28;20032;-47
2022/01/20 01:52:26;;;;;;;0.98;0.70;;;21.20;44.90;;;;;;5106211;28;20036;-49
2022/01/20 01:54:52;;;;;;;1.20;0.90;;;21.20;44.80;;;;;;5105072;28;20169;-49
2022/01/20 01:57:18;;;;;;;1.05;0.80;;;21.20;44.90;;;;;;5105306;28;20046;-48
2022/01/20 01:59:44;;;;;;;2.75;1.00;;;21.20;45.00;;;;;;5105082;28;20020;-49
2022/01/20 02:02:10;;;;;;;1.35;0.90;;;21.10;44.90;;;;;;5085833;28;20161;-46
2022/01/20 02:04:37;;;;;;;1.00;0.88;;;21.10;45.00;;;;;;5085679;28;20713;-46
2022/01/20 02:18:12;;;;;;;1.02;0.70;;;20.90;44.90;;;;;;5042592;28;20072;-49
2022/01/20 02:20:41;;;;;;;0.77;0.73;;;20.90;45.00;;;;;;5042387;28;20053;-48
2022/01/20 02:23:07;;;;;;;1.20;1.10;;;20.90;45.10;;;;;;5042535;28;20041;-49
2022/01/20 02:25:34;;;;;;;0.80;0.80;;;20.90;45.20;;;;;;5042613;28;20026;-48
2022/01/20 02:28:06;;;;;;;1.20;0.90;;;20.90;45.20;;;;;;5025670;28;20068;-52
2022/01/20 02:30:32;;;;;;;1.00;0.90;;;20.90;45.40;;;;;;5042387;28;20082;-53
2022/01/20 02:33:00;;;;;;;1.70;0.70;;;20.90;45.30;;;;;;5025814;28;20041;-51
2022/01/20 02:35:27;;;;;;;1.05;0.90;;;20.80;45.30;;;;;;5042500;28;20060;-53
2022/01/20 02:37:59;;;;;;;1.13;0.90;;;20.80;45.40;;;;;;5042210;28;20029;-51
2022/01/20 02:45:42;;;;;;;0.90;0.65;;;20.80;45.50;;;;;;5042250;28;20168;-49
2022/01/20 02:48:08;;;;;;;1.15;0.88;;;20.80;45.50;;;;;;5074875;28;20032;-49
2022/01/20 02:50:34;;;;;;;0.95;0.80;;;20.80;45.60;;;;;;5104561;28;20051;-51
2022/01/20 02:53:00;;;;;;;0.85;0.75;;;20.80;45.60;;;;;;5105012;28;20032;-49
2022/01/20 02:55:27;;;;;;;1.00;0.90;;;20.80;45.60;;;;;;5105178;28;20427;-49
2022/01/20 02:57:53;;;;;;;1.00;0.80;;;20.70;45.60;;;;;;5104358;28;20031;-49
2022/01/20 03:00:19;;;;;;;0.90;0.73;;;20.70;45.60;;;;;;5104413;28;20028;-47
2022/01/20 03:02:47;;;;;;;1.15;0.80;;;20.70;45.60;;;;;;5104790;28;20028;-48
2022/01/20 03:05:13;;;;;;;0.88;0.63;;;20.70;45.70;;;;;;5104733;28;20031;-47
2022/01/20 03:07:40;;;;;;;0.95;0.80;;;20.70;45.70;;;;;;5104898;28;20028;-48
2022/01/20 03:10:06;;;;;;;0.80;0.70;;;20.70;45.80;;;;;;5104444;28;20029;-51
2022/01/20 03:12:33;;;;;;;0.80;0.73;;;20.70;45.80;;;;;;5104408;28;20155;-48
2022/01/20 03:14:59;;;;;;;1.37;1.00;;;20.70;45.80;;;;;;5104608;28;20039;-48
2022/01/20 03:17:25;;;;;;;0.98;0.80;;;20.60;45.70;;;;;;5104100;28;20024;-52
2022/01/20 03:19:51;;;;;;;0.82;0.73;;;20.60;45.90;;;;;;5102958;28;20125;-48
2022/01/20 03:22:17;;;;;;;1.10;0.82;;;20.60;45.80;;;;;;5104644;28;20035;-48
2022/01/20 03:24:43;;;;;;;0.60;0.60;;;20.60;45.80;;;;;;5104330;28;20032;-49
2022/01/20 03:27:09;;;;;;;1.10;1.00;;;20.60;45.80;;;;;;5104293;28;20950;-48
2022/01/20 03:29:35;;;;;;;1.17;0.90;;;20.50;45.80;;;;;;5117683;28;20016;-48
2022/01/20 03:32:02;;;;;;;1.95;1.10;;;20.50;45.80;;;;;;5084164;28;20060;-47
2022/01/20 03:34:28;;;;;;;0.90;0.80;;;20.50;45.90;;;;;;5084120;28;20028;-47
2022/01/20 03:36:54;;;;;;;0.80;0.73;;;20.50;45.90;;;;;;5083448;28;20025;-48
2022/01/20 03:39:20;;;;;;;2.15;0.95;;;20.50;45.90;;;;;;5083620;28;20025;-49
2022/01/20 03:41:46;;;;;;;1.02;0.93;;;20.40;45.90;;;;;;5088724;28;20034;-48
2022/01/20 03:44:12;;;;;;;0.77;0.70;;;20.40;45.90;;;;;;5124174;28;20031;-50
2022/01/20 03:46:39;;;;;;;2.72;0.70;;;20.40;46.00;;;;;;5124436;28;20094;-47
2022/01/20 03:49:11;;;;;;;0.90;0.90;;;20.40;46.00;;;;;;5117715;28;20032;-47
2022/01/20 03:51:37;;;;;;;2.35;1.10;;;20.30;45.90;;;;;;5083494;28;20052;-46
2022/01/20 03:54:04;;;;;;;1.20;1.10;;;20.30;45.90;;;;;;5083219;28;20069;-46
2022/01/20 03:56:31;;;;;;;1.00;0.90;;;20.20;46.00;;;;;;5083446;28;20063;-49
2022/01/20 03:58:57;;;;;;;1.52;1.00;;;20.20;46.00;;;;;;5083083;28;20024;-46
2022/01/20 04:01:23;;;;;;;1.00;0.90;;;20.20;46.00;;;;;;5082608;28;20462;-47
2022/01/20 04:03:49;;;;;;;1.35;1.00;;;20.20;46.10;;;;;;5083441;28;20064;-46
2022/01/20 04:06:16;;;;;;;0.73;0.65;;;20.20;46.00;;;;;;5083400;28;20094;-48
2022/01/20 04:08:47;;;;;;;1.77;1.10;;;20.20;46.10;;;;;;5101991;28;20050;-51
2022/01/20 04:11:15;;;;;;;1.58;0.90;;;20.10;46.10;;;;;;5103295;28;20020;-49
2022/01/20 04:13:41;;;;;;;1.17;1.05;;;20.10;46.00;;;;;;5103060;28;20051;-49
2022/01/20 04:16:14;;;;;;;1.10;1.00;;;20.10;46.00;;;;;;5103239;28;20066;-50
2022/01/20 04:18:52;;;;;;;1.00;0.90;;;20.10;46.20;;;;;;5084885;28;20134;-49
2022/01/20 04:21:21;;;;;;;1.20;0.90;;;20.10;46.10;;;;;;5103336;28;20443;-46
2022/01/20 04:23:48;;;;;;;1.70;1.02;;;20.00;46.20;;;;;;5103400;28;20039;-48
2022/01/20 04:26:14;;;;;;;1.10;0.93;;;20.00;46.10;;;;;;5102919;28;20023;-49
2022/01/20 04:28:40;;;;;;;1.23;1.00;;;20.00;46.20;;;;;;5103412;28;20028;-49
2022/01/20 04:31:06;;;;;;;1.02;0.90;;;20.00;46.20;;;;;;5102642;28;20046;-49
2022/01/20 04:33:33;;;;;;;1.63;0.95;;;20.00;46.20;;;;;;5103198;28;20063;-47
2022/01/20 04:35:59;;;;;;;1.00;0.90;;;19.90;46.20;;;;;;5103006;28;20039;-48
2022/01/20 04:38:26;;;;;;;1.40;1.00;;;19.90;46.20;;;;;;5103584;28;20471;-48
2022/01/20 04:40:52;;;;;;;1.48;0.93;;;19.90;46.20;;;;;;5122971;28;20289;-47
2022/01/20 04:43:19;;;;;;;1.48;0.95;;;19.80;46.20;;;;;;5123424;28;20042;-47
2022/01/20 04:45:53;;;;;;;1.48;1.00;;;19.80;46.30;;;;;;5123227;28;20023;-47
2022/01/20 04:49:12;;;;;;;1.35;1.08;;;19.80;46.30;;;;;;5123475;28;20052;-47
2022/01/20 04:59:22;;;;;;;1.02;0.93;;;19.70;46.40;;;;;;5102653;28;20039;-47
2022/01/20 05:01:48;;;;;;;3.80;1.15;;;19.70;46.50;;;;;;5083569;28;20029;-48
2022/01/20 05:04:14;;;;;;;1.15;0.80;;;19.70;46.40;;;;;;5082454;28;20024;-50
2022/01/20 05:06:42;;;;;;;1.65;1.30;;;19.60;46.50;;;;;;5082575;28;20040;-47
2022/01/20 05:09:11;;;;;;;1.00;0.77;;;19.60;46.50;;;;;;5082369;28;20047;-47
2022/01/20 05:11:42;;;;;;;1.00;0.90;;;19.60;46.50;;;;;;5082257;28;20350;-48
2022/01/20 05:14:08;;;;;;;1.10;1.00;;;19.50;46.50;;;;;;5086347;28;20037;-47
2022/01/20 05:16:34;;;;;;;1.17;1.08;;;19.50;46.50;;;;;;5086452;28;20033;-47
2022/01/20 05:19:00;;;;;;;0.98;0.88;;;19.50;46.50;;;;;;5086554;28;20032;-47
2022/01/20 05:21:26;;;;;;;1.10;1.00;;;19.50;46.60;;;;;;5106326;28;20481;-48
2022/01/20 05:23:53;;;;;;;1.58;1.13;;;19.50;46.70;;;;;;5088433;28;20059;-47
2022/01/20 05:26:19;;;;;;;1.10;0.90;;;19.40;46.50;;;;;;5106840;28;20052;-47
2022/01/20 05:28:45;;;;;;;1.63;1.10;;;19.40;46.60;;;;;;5106520;28;20083;-49
2022/01/20 05:31:11;;;;;;;1.20;1.02;;;19.40;46.60;;;;;;5105711;28;20043;-52
2022/01/20 05:33:37;;;;;;;1.10;1.00;;;19.40;46.70;;;;;;5113372;28;20459;-53
2022/01/20 05:36:04;;;;;;;1.10;1.00;;;19.30;46.70;;;;;;5126920;28;20109;-50
2022/01/20 05:38:30;;;;;;;1.13;1.02;;;19.30;46.70;;;;;;5126923;28;20028;-52
2022/01/20 05:40:56;;;;;;;1.38;1.17;;;19.30;46.70;;;;;;5126747;28;20442;-53
2022/01/20 05:43:22;;;;;;;1.17;0.98;;;19.30;46.80;;;;;;5126658;28;20039;-52
2022/01/20 05:45:48;;;;;;;1.35;1.10;;;19.20;46.90;;;;;;5126841;28;20012;-48
2022/01/20 05:48:17;;;;;;;1.42;1.10;;;19.20;46.70;;;;;;5126173;28;20024;-48
2022/01/20 05:50:44;;;;;;;1.70;1.20;;;19.20;46.80;;;;;;5112176;28;20079;-52
2022/01/20 05:53:10;;;;;;;1.58;1.27;;;19.20;46.90;;;;;;5106244;28;20047;-48
2022/01/20 05:55:37;;;;;;;1.67;1.23;;;19.20;46.90;;;;;;5105978;28;20080;-50
2022/01/20 05:58:04;;;;;;;1.10;1.00;;;19.10;46.80;;;;;;5105704;28;20269;-52
2022/01/20 06:00:30;;;;;;;;;;;19.10;46.90;;;;;;5104864;28;20052;-52
2022/01/20 06:05:41;;;;;;;1.88;1.40;;;19.00;46.80;;;;;;5105792;28;20066;-46
2022/01/20 06:08:07;;;;;;;1.92;1.27;;;19.00;47.00;;;;;;5105703;28;20016;-47
2022/01/20 06:10:33;;;;;;;1.95;1.30;;;19.00;46.90;;;;;;5105593;28;20075;-51
2022/01/20 06:12:59;;;;;;;1.50;1.10;;;19.00;46.90;;;;;;5105503;28;20047;-46
2022/01/20 06:15:25;;;;;;;1.40;1.17;;;19.00;46.90;;;;;;5105819;28;20420;-49
2022/01/20 06:17:51;;;;;;;2.03;1.45;;;19.00;47.10;;;;;;5105508;28;20024;-47
2022/01/20 06:20:17;;;;;;;1.13;1.00;;;18.90;47.00;;;;;;5105638;28;20032;-48
2022/01/20 06:22:44;;;;;;;1.83;1.20;;;18.90;47.00;;;;;;5105135;28;20054;-46
2022/01/20 06:25:10;;;;;;;2.60;1.10;;;18.90;47.00;;;;;;5103632;28;20030;-50
2022/01/20 06:27:36;;;;;;;1.90;1.13;;;18.90;47.00;;;;;;5105448;28;20028;-47
2022/01/20 06:30:05;;;;;;;2.45;1.30;;;18.90;47.10;;;;;;5101758;28;20028;-48
2022/01/20 06:32:32;;;;;;;3.17;1.30;;;18.80;47.10;;;;;;5066529;28;20043;-49
2022/01/20 06:34:58;;;;;;;2.03;1.25;;;18.80;47.10;;;;;;5085088;28;20028;-48
2022/01/20 06:37:24;;;;;;;1.85;1.40;;;18.80;47.10;;;;;;5066826;28;20024;-46
2022/01/20 06:39:50;;;;;;;1.30;1.20;;;18.80;47.20;;;;;;5084887;28;20436;-46
2022/01/20 06:42:16;;;;;;;1.40;1.25;;;18.80;47.30;;;;;;5084742;28;20031;-50
2022/01/20 06:44:43;;;;;;;1.70;1.40;;;18.70;47.20;;;;;;5084868;28;20020;-46
2022/01/20 06:47:09;;;;;;;3.58;1.45;;;18.70;47.30;;;;;;5097943;28;20107;-47
2022/01/20 06:49:35;;;;;;;1.63;1.40;;;18.70;47.30;;;;;;5120759;28;20028;-47
2022/01/20 06:52:02;;;;;;;1.33;1.23;;;18.70;47.30;;;;;;5104492;28;20280;-47
2022/01/20 06:54:28;;;;;;;1.63;1.42;;;18.60;47.30;;;;;;5105091;28;20028;-47
2022/01/20 06:56:54;;;;;;;1.75;1.38;;;18.60;47.30;;;;;;5104802;28;20021;-47
2022/01/20 06:59:20;;;;;;;1.30;1.20;;;18.60;47.30;;;;;;5104212;28;20035;-50
2022/01/20 07:01:47;;;;;;;2.65;1.38;;;18.60;47.40;;;;;;5102913;28;20048;-47
2022/01/20 07:04:15;;;;;;;1.30;1.20;;;18.60;47.40;;;;;;5104732;28;20028;-47
2022/01/20 07:06:42;;;;;;;1.50;1.30;;;18.60;48.00;;;;;;5086574;28;20024;-47
2022/01/20 07:09:09;;;;;;;2.08;1.70;;;18.50;47.30;;;;;;5104384;28;20024;-47
2022/01/20 07:11:35;;;;;;;1.58;1.48;;;18.50;47.40;;;;;;5102871;28;20081;-46
2022/01/20 07:14:01;;;;;;;2.10;1.50;;;18.50;47.50;;;;;;5104401;28;20139;-47
2022/01/20 07:16:28;;;;;;;1.33;1.23;;;18.50;47.50;;;;;;5104567;28;20020;-47
2022/01/20 07:18:55;;;;;;;2.08;1.60;;;18.50;47.50;;;;;;5104245;28;20778;-47
2022/01/20 07:21:21;;;;;;;1.13;0.98;;;18.40;47.50;;;;;;5102764;28;20032;-46
2022/01/20 07:23:48;;;;;;;1.85;1.55;;;18.40;47.60;;;;;;5104393;28;20023;-47
2022/01/20 07:26:14;;;;;;;3.38;1.55;;;18.40;47.60;;;;;;5104166;28;20019;-49
2022/01/20 07:28:40;;;;;;;1.50;1.30;;;18.40;47.70;;;;;;5103930;28;20586;-49
2022/01/20 07:31:07;;;;;;;1.73;1.60;;;18.30;47.60;;;;;;5091645;28;20456;-46
2022/01/20 07:33:33;;;;;;;1.93;1.33;;;18.40;47.60;;;;;;5083537;28;20036;-49
2022/01/20 07:35:59;;;;;;;1.98;1.52;;;18.30;47.60;;;;;;5113979;28;20027;-47
2022/01/20 07:38:25;;;;;;;1.77;1.50;;;18.30;47.70;;;;;;5124523;28;20024;-45
2022/01/20 07:40:52;;;;;;;2.13;1.50;;;18.20;47.70;;;;;;5124504;28;20020;-46
2022/01/20 07:43:18;;;;;;;1.92;1.60;;;18.20;47.70;;;;;;5123989;28;20032;-48
2022/01/20 07:45:44;;;;;;;1.63;1.50;;;18.20;47.70;;;;;;5124209;28;20094;-46
2022/01/20 07:48:10;;;;;;;1.50;1.33;;;18.20;47.80;;;;;;5124011;28;20115;-47
2022/01/20 07:50:37;;;;;;;2.00;1.52;;;18.20;47.90;;;;;;5110812;28;20020;-47
2022/01/20 07:53:03;;;;;;;1.33;1.23;;;18.10;47.90;;;;;;5103469;28;20040;-49
2022/01/20 07:55:29;;;;;;;1.92;1.55;;;18.20;47.80;;;;;;5121389;28;20079;-49
2022/01/20 07:57:56;;;;;;;1.98;1.55;;;18.10;47.80;;;;;;5110879;28;20392;-46
2022/01/20 08:00:22;;;;;;;1.95;1.63;;;18.10;47.90;;;;;;5102839;28;20050;-46
2022/01/20 08:02:48;;;;;;;2.38;1.55;;;18.10;47.90;;;;;;5103272;28;20028;-46
2022/01/20 08:05:14;;;;;;;1.85;1.55;;;18.00;48.00;;;;;;5103109;28;20515;-47
2022/01/20 08:07:40;;;;;;;2.05;1.77;;;18.00;48.00;;;;;;5103056;28;20036;-45
2022/01/20 08:10:07;;;;;;;2.15;1.70;;;18.00;48.10;;;;;;5103407;28;20012;-48
2022/01/20 08:12:33;;;;;;;2.28;1.80;;;18.00;48.00;;;;;;5102949;28;20052;-45
2022/01/20 08:15:00;;;;;;;1.90;1.52;;;18.00;48.10;;;;;;5102976;28;20028;-46
2022/01/20 08:17:26;;;;;;;1.70;1.60;;;17.90;48.10;;;;;;5103251;28;20035;-48
2022/01/20 08:19:52;;;;;;;2.33;1.85;;;17.90;48.00;;;;;;5103118;28;20024;-45
2022/01/20 08:22:18;;;;;;;2.08;1.85;;;17.90;48.00;;;;;;5100294;28;20207;-46
2022/01/20 08:24:49;;;;;;;2.60;1.83;;;17.90;48.00;;;;;;5103070;28;20047;-47
2022/01/20 08:27:17;;;;;;;3.92;2.08;;;17.90;48.20;;;;;;5103028;28;20087;-48
2022/01/20 08:29:43;;;;;;;2.15;1.80;;;17.90;48.20;;;;;;5101628;28;20031;-47
2022/01/20 08:32:09;;;;;;;1.77;1.50;;;17.80;48.20;;;;;;5082723;28;20047;-46
2022/01/20 08:34:35;;;;;;;1.90;1.75;;;17.80;48.20;;;;;;5082289;28;20047;-46
2022/01/20 08:37:01;;;;;;;2.20;1.77;;;17.80;48.20;;;;;;5064580;28;20421;-46
2022/01/20 08:39:39;;;;;;;1.83;1.58;;;17.80;48.30;;;;;;5082565;28;20025;-46
2022/01/20 08:42:05;;;;;;;1.98;1.77;;;17.80;48.30;;;;;;5082278;28;20096;-47
2022/01/20 08:44:32;;;;;;;1.67;1.50;;;17.70;48.30;;;;;;5082394;28;20035;-45
2022/01/20 08:46:58;;;;;;;1.88;1.67;;;17.70;48.30;;;;;;5082267;28;20035;-46
2022/01/20 08:49:25;;;;;;;2.50;1.97;;;17.70;48.40;;;;;;5085695;28;20514;-46
2022/01/20 08:51:51;;;;;;;1.85;1.65;;;17.70;48.40;;;;;;5102675;28;20078;-47
2022/01/20 08:54:17;;;;;;;2.25;1.75;;;17.70;48.40;;;;;;5102389;28;20032;-48
2022/01/20 08:56:44;;;;;;;3.35;1.67;;;17.70;48.40;;;;;;5113266;28;20023;-48
2022/01/20 08:59:10;;;;;;;4.32;1.90;;;17.70;48.50;;;;;;5122852;27;20946;-50
2022/01/20 09:01:37;;;;;;;2.63;1.63;;;17.70;48.50;;;;;;5088122;28;20029;-48
2022/01/20 09:04:04;;;;;;;2.30;2.08;;;17.60;48.50;;;;;;5082272;28;20055;-47
2022/01/20 09:06:30;;;;;;;1.80;1.50;;;17.60;48.60;;;;;;5082384;28;20029;-47
2022/01/20 09:08:57;;;;;;;2.55;1.90;;;17.60;48.70;;;;;;5082107;28;20051;-47
2022/01/20 09:11:24;;;;;;;2.35;1.75;;;17.60;48.70;;;;;;5082284;28;20032;-47
2022/01/20 09:16:36;;;;;;;6.55;1.98;;;17.50;48.70;;;;;;5082280;28;20074;-47
2022/01/20 09:19:03;;;;;;;3.30;1.80;;;17.60;48.70;;;;;;5081981;28;20025;-50
2022/01/20 09:21:29;;;;;;;6.13;2.08;;;17.60;48.70;;;;;;5102445;28;20024;-46
2022/01/20 09:23:55;;;;;;;3.88;1.98;;;17.50;48.70;;;;;;5102152;28;20036;-46
2022/01/20 09:26:22;;;;;;;4.87;1.70;;;17.50;48.70;;;;;;5104121;28;20020;-47
2022/01/20 09:28:48;;;;;;;3.88;2.03;;;17.50;48.80;;;;;;5122507;28;20023;-47
2022/01/20 09:31:14;;;;;;;4.03;1.90;;;17.50;48.80;;;;;;5094644;28;20063;-47
2022/01/20 09:33:40;;;;;;;2.10;1.90;;;17.50;48.90;;;;;;5081666;28;20108;-49
2022/01/20 09:36:10;;;;;;;3.92;2.05;;;17.50;48.90;;;;;;5082011;28;20036;-48
2022/01/20 09:38:36;;;;;;;2.90;1.83;;;17.40;48.80;;;;;;5081787;28;20028;-47
2022/01/20 09:41:03;;;;;;;2.90;2.00;;;17.40;48.80;;;;;;5082177;28;20084;-49
2022/01/20 09:43:29;;;;;;;2.38;1.80;;;17.40;48.90;;;;;;5081580;28;20029;-47
2022/01/20 09:45:55;;;;;;;2.88;1.58;;;17.40;48.90;;;;;;5081503;28;20067;-47
2022/01/20 09:48:22;;;;;;;3.00;1.90;;;17.40;49.30;;;;;;5081794;28;20020;-46
2022/01/20 09:50:49;;;;;;;2.92;1.88;;;17.60;49.60;;;;;;5104778;28;20105;-46
2022/01/20 09:53:15;;;;;;;1.90;1.65;;;17.60;50.00;;;;;;5122050;28;20051;-48
2022/01/20 09:55:42;;;;;;;1.85;1.45;;;17.70;50.30;;;;;;5120934;28;20026;-47
2022/01/20 09:58:08;;;;;;;2.25;1.60;;;17.80;50.50;;;;;;5119250;28;20031;-48
2022/01/20 10:00:35;;;;;;;3.10;1.50;;;17.90;50.80;;;;;;5114186;28;20052;-48
2022/01/20 10:03:10;;;;;;;2.00;1.40;;;18.00;51.00;;;;;;5105728;28;20032;-46
2022/01/20 10:05:47;;;;;;;2.03;1.27;;;18.10;51.10;;;;;;5105450;28;20016;-46
2022/01/20 10:08:24;;;;;;;1.67;1.42;;;18.30;51.30;;;;;;5105518;28;20031;-47
2022/01/20 10:10:58;;;;;;;1.73;1.40;;;18.40;51.60;;;;;;5104405;28;20044;-48
2022/01/20 10:13:30;;;;;;;1.63;1.20;;;18.60;51.60;;;;;;5104952;28;20044;-48
2022/01/20 10:16:08;;;;;;;2.15;1.33;;;18.70;51.70;;;;;;5105070;28;20028;-47
2022/01/20 10:18:53;;;;;;;2.10;1.00;;;18.80;51.90;;;;;;5105345;28;20101;-47
2022/01/20 10:21:28;;;;;;;1.45;1.20;;;19.00;52.10;;;;;;5105089;28;20030;-47
2022/01/20 10:24:02;;;;;;;1.45;1.10;;;19.10;52.00;;;;;;5088424;28;20043;-48
2022/01/20 10:26:28;;;;;;;1.35;1.02;;;19.20;52.00;;;;;;5105365;28;20051;-47
2022/01/20 10:28:55;;;;;;;1.23;1.10;;;19.30;51.90;;;;;;5104879;28;20032;-47
2022/01/20 10:31:49;;;;;;;1.20;1.10;;;19.50;51.70;;;;;;5110473;28;20608;-47
2022/01/20 10:34:33;;;;;;;1.80;1.17;;;19.50;51.40;;;;;;5104630;28;20043;-47
2022/01/20 10:37:12;;;;;;;1.35;0.98;;;19.50;51.10;;;;;;5105055;28;20035;-46
2022/01/20 10:39:44;;;;;;;1.40;1.20;;;19.40;51.20;;;;;;5104786;28;20056;-47
2022/01/20 10:42:21;;;;;;;2.05;1.20;;;19.50;51.40;;;;;;5104987;28;20035;-46
2022/01/20 10:44:51;;;;;;;1.35;1.20;;;19.60;51.40;;;;;;5104532;28;20051;-48
2022/01/20 10:47:25;;;;;;;1.67;1.20;;;19.70;51.50;;;;;;5104725;28;20024;-48
2022/01/20 10:49:51;;;;;;;1.40;1.30;;;19.90;51.40;;;;;;5111823;28;20027;-48
2022/01/20 10:52:22;;;;;;;1.35;1.13;;;20.00;51.20;;;;;;5125140;28;20034;-48
2022/01/20 10:54:50;;;;;;;1.17;1.00;;;20.10;51.30;;;;;;5124916;28;20066;-47
2022/01/20 10:57:16;;;;;;;1.27;1.17;;;20.20;51.20;;;;;;5124881;28;20493;-46
2022/01/20 10:59:53;;;;;;;1.48;1.10;;;20.30;51.10;;;;;;5124701;27;20051;-47
2022/01/20 11:02:21;;;;;;;1.55;1.23;;;20.30;50.50;;;;;;5084515;28;20021;-47
2022/01/20 11:04:47;;;;;;;1.08;0.98;;;20.30;50.50;;;;;;5083958;28;20052;-48
2022/01/20 11:07:13;;;;;;;1.50;1.13;;;20.30;50.40;;;;;;5084247;28;20098;-49
2022/01/20 11:09:43;;;;;;;1.50;1.30;;;20.30;50.60;;;;;;5083985;28;20082;-47
2022/01/20 11:12:13;;;;;;;2.15;1.58;;;20.30;50.40;;;;;;5083560;28;20049;-47
2022/01/20 11:14:40;;;;;;;1.63;1.30;;;20.40;50.50;;;;;;5083475;28;20046;-46
2022/01/20 11:17:06;;;;;;;2.10;1.90;;;20.50;50.50;;;;;;5083704;28;20036;-48
2022/01/20 11:19:38;;;;;;;1.75;1.65;;;20.60;50.40;;;;;;5088132;28;20027;-48
2022/01/20 11:22:09;;;;;;;1.77;1.60;;;20.60;50.00;;;;;;5104160;28;20018;-47
2022/01/20 11:24:35;;;;;;;2.55;1.65;;;20.60;49.90;;;;;;5104007;28;20032;-47
2022/01/20 11:27:02;;;;;;;2.28;1.60;;;20.60;49.80;;;;;;5104257;28;20032;-48
2022/01/20 11:29:49;;;;;;;2.07;1.87;;;20.60;49.80;;;;;;5122888;28;20028;-48
2022/01/20 11:32:25;;;;;;;2.63;2.40;;;20.60;49.70;;;;;;5103674;28;20289;-48
2022/01/20 11:35:02;;;;;;;2.83;2.55;;;20.70;49.80;;;;;;5103719;28;20053;-48
2022/01/20 11:37:34;;;;;;;3.17;2.88;;;20.80;49.90;;;;;;5103412;28;20049;-47
2022/01/20 11:40:17;;;;;;;2.90;2.50;;;20.80;49.60;;;;;;5103626;28;20191;-47
2022/01/20 11:43:13;;;;;;;3.30;3.00;;;20.80;49.50;;;;;;5103675;28;20049;-46
2022/01/20 11:45:42;;;;;;;2.63;2.42;;;20.80;49.40;;;;;;5103626;28;20405;-47
2022/01/20 11:48:26;;;;;;;3.78;3.40;;;20.80;49.30;;;;;;5103438;28;20390;-47
2022/01/20 11:51:06;;;;;;;3.58;3.28;;;20.80;49.30;;;;;;5102028;28;20032;-48
2022/01/20 11:53:33;;;;;;;3.65;3.35;;;20.80;49.40;;;;;;5107697;28;20035;-50
2022/01/20 11:55:59;;;;;;;3.85;3.47;;;20.90;49.50;;;;;;5123842;28;20072;-51
2022/01/20 11:58:26;;;;;;;3.95;3.55;;;20.90;49.30;;;;;;5101891;28;20028;-47
2022/01/20 12:00:59;;;;;;;4.35;3.95;;;20.90;49.20;;;;;;5093536;28;20031;-47
2022/01/20 12:03:25;;;;;;;4.10;3.70;;;20.90;49.20;;;;;;5083130;28;20021;-46
2022/01/20 12:06:01;;;;;;;4.00;3.60;;;20.90;49.10;;;;;;5082939;28;20023;-49
2022/01/20 12:08:27;;;;;;;4.15;3.75;;;20.90;49.10;;;;;;5082550;28;20060;-49
2022/01/20 12:11:02;;;;;;;4.28;3.88;;;20.90;49.10;;;;;;5082740;28;20032;-48
2022/01/20 12:13:30;;;;;;;4.45;4.05;;;20.90;49.80;;;;;;5082545;28;20052;-48
2022/01/20 12:16:01;;;;;;;4.00;3.70;;;20.90;49.20;;;;;;5082814;28;20479;-47
2022/01/20 12:18:28;;;;;;;4.75;3.80;;;20.90;49.10;;;;;;5082650;28;20030;-48
2022/01/20 12:20:54;;;;;;;4.20;3.88;;;20.90;49.10;;;;;;5080043;28;20052;-47
2022/01/20 12:23:20;;;;;;;4.10;3.70;;;20.90;49.00;;;;;;5102494;28;20092;-48
2022/01/20 12:25:46;;;;;;;4.50;4.10;;;20.90;48.90;;;;;;5103007;28;20038;-47
2022/01/20 12:28:14;;;;;;;4.60;4.20;;;20.90;49.00;;;;;;5102581;28;20043;-49
2022/01/20 12:30:47;;;;;;;4.63;4.22;;;20.90;49.10;;;;;;5094914;28;20051;-47
2022/01/20 12:33:15;;;;;;;4.20;3.90;;;21.00;49.20;;;;;;5082574;28;20032;-48
2022/01/20 12:35:48;;;;;;;4.35;3.95;;;21.00;49.10;;;;;;5084508;28;20062;-48
2022/01/20 12:38:18;;;;;;;4.57;4.18;;;21.00;49.00;;;;;;5094613;28;20008;-47
2022/01/20 12:40:58;;;;;;;5.25;4.03;;;20.90;49.00;;;;;;5102739;28;20028;-48
2022/01/20 12:43:34;;;;;;;4.53;4.13;;;20.90;48.90;;;;;;5086388;28;20049;-47
2022/01/20 12:46:00;;;;;;;5.10;4.60;;;20.90;48.90;;;;;;5094377;28;20093;-47
2022/01/20 12:48:26;;;;;;;5.00;4.50;;;20.90;49.00;;;;;;5122606;28;20019;-48
2022/01/20 12:51:02;;;;;;;5.03;4.53;;;21.00;49.10;;;;;;5107624;28;20032;-48
2022/01/20 12:53:43;;;;;;;4.85;4.45;;;21.00;49.10;;;;;;5102530;28;20117;-48
2022/01/20 12:56:11;;;;;;;4.60;4.20;;;21.00;49.10;;;;;;5102430;28;20040;-47
2022/01/20 12:58:47;;;;;;;4.28;3.88;;;21.00;49.00;;;;;;5102145;28;20136;-49
2022/01/20 13:01:13;;;;;;;4.47;4.07;;;20.90;48.90;;;;;;5100023;28;20082;-47
2022/01/20 13:03:42;;;;;;;4.70;4.30;;;20.90;48.80;;;;;;5102526;28;20020;-50
2022/01/20 13:06:12;;;;;;;4.80;4.40;;;20.90;48.90;;;;;;5102344;28;20056;-48
2022/01/20 13:08:41;;;;;;;5.18;4.70;;;20.90;48.80;;;;;;5102296;28;20024;-48
2022/01/20 13:11:11;;;;;;;5.00;4.53;;;20.90;48.80;;;;;;5102326;28;20183;-47
2022/01/20 13:13:37;;;;;;;4.45;4.05;;;20.90;48.70;;;;;;5101847;28;20067;-49
2022/01/20 13:16:14;;;;;;;4.88;4.47;;;20.90;48.70;;;;;;5101998;28;20035;-47
2022/01/20 13:18:50;;;;;;;5.30;4.82;;;20.90;48.60;;;;;;5102319;28;20057;-47
2022/01/20 13:21:18;;;;;;;4.65;4.25;;;20.80;48.60;;;;;;5101868;28;20028;-46
2022/01/20 13:23:57;;;;;;;5.40;4.90;;;20.80;48.50;;;;;;5101896;28;20026;-48
2022/01/20 13:26:24;;;;;;;5.40;4.90;;;20.80;48.50;;;;;;5102070;28;20058;-48
2022/01/20 13:29:05;;;;;;;5.45;4.95;;;20.70;48.50;;;;;;5115649;28;20028;-48
2022/01/20 13:31:32;;;;;;;5.10;4.70;;;20.70;48.50;;;;;;5105760;28;20133;-46
2022/01/20 13:34:08;;;;;;;5.53;5.03;;;20.70;48.50;;;;;;5102408;28;20032;-49
2022/01/20 13:36:41;;;;;;;5.00;4.57;;;20.70;48.40;;;;;;5106100;28;20034;-47
2022/01/20 13:39:07;;;;;;;4.93;4.50;;;20.60;48.40;;;;;;5105497;28;20027;-48
2022/01/20 13:41:34;;;;;;;5.30;4.80;;;20.60;48.40;;;;;;5105684;28;20020;-48
2022/01/20 13:46:47;;;;;;;6.10;5.32;;;20.60;48.40;;;;;;5105730;28;20035;-47
2022/01/20 13:49:22;;;;;;;5.80;5.30;;;20.50;48.40;;;;;;5105881;28;20027;-49
2022/01/20 13:51:58;;;;;;;5.63;5.03;;;20.50;48.40;;;;;;5105841;28;20506;-48
2022/01/20 13:54:36;;;;;;;5.72;5.15;;;20.50;48.30;;;;;;5105876;28;20022;-47
2022/01/20 13:57:02;;;;;;;5.80;5.20;;;20.50;48.40;;;;;;5105645;28;20112;-50
2022/01/20 13:59:28;;;;;;;5.95;5.45;;;20.40;48.30;;;;;;5108269;28;20020;-48
2022/01/20 14:01:54;;;;;;;5.53;4.95;;;20.40;48.30;;;;;;5104542;28;20029;-48
2022/01/20 14:04:20;;;;;;;5.72;5.22;;;20.40;48.40;;;;;;5115720;28;20024;-47